createdAt,value
2023-04-02T00:01:11.532Z,10.00
2023-04-02T00:03:38.204Z,9.96
2023-04-02T00:06:04.679Z,9.71
2023-04-02T00:08:31.069Z,9.70
2023-04-02T00:10:57.609Z,9.63
2023-04-02T00:13:23.981Z,9.57
2023-04-02T00:15:50.387Z,9.96
2023-04-02T00:18:16.797Z,10.06
2023-04-02T00:20:43.225Z,9.89
2023-04-02T00:23:09.647Z,9.93
2023-04-02T00:25:36.224Z,9.97
2023-04-02T00:28:02.960Z,10.00
2023-04-02T00:30:29.334Z,10.19
2023-04-02T00:32:56.003Z,10.25
2023-04-02T00:35:22.457Z,10.24
2023-04-02T00:37:48.861Z,10.03
2023-04-02T00:40:15.231Z,10.09
2023-04-02T00:42:41.782Z,10.09
2023-04-02T00:45:08.706Z,10.14
2023-04-02T00:47:35.395Z,10.08
2023-04-02T00:50:01.868Z,10.08
2023-04-02T00:52:28.218Z,10.12
2023-04-02T00:54:54.785Z,10.07
2023-04-02T00:57:21.224Z,9.99
2023-04-02T00:59:47.610Z,9.83
2023-04-02T01:02:14.088Z,9.61
2023-04-02T01:04:40.648Z,9.68
2023-04-02T01:07:07.219Z,10.01
2023-04-02T01:09:33.754Z,10.12
2023-04-02T01:12:00.415Z,10.34
2023-04-02T01:14:26.884Z,10.40
2023-04-02T01:16:53.293Z,10.23
2023-04-02T01:19:19.680Z,9.59
2023-04-02T01:21:46.063Z,9.36
2023-04-02T01:24:12.486Z,9.38
2023-04-02T01:26:38.875Z,9.17
2023-04-02T01:29:05.357Z,8.88
2023-04-02T01:31:32.012Z,8.90
2023-04-02T01:33:58.412Z,9.02
2023-04-02T01:36:24.808Z,9.00
2023-04-02T01:38:51.183Z,9.01
2023-04-02T01:41:17.669Z,9.01
2023-04-02T01:43:44.068Z,9.08
2023-04-02T01:46:10.615Z,9.12
2023-04-02T01:48:37.006Z,8.96
2023-04-02T01:51:03.370Z,9.11
2023-04-02T01:53:29.901Z,9.16
2023-04-02T01:55:56.305Z,9.25
2023-04-02T01:58:22.736Z,9.56
2023-04-02T02:00:49.138Z,9.59
2023-04-02T02:03:15.641Z,9.23
2023-04-02T02:05:42.149Z,9.27
2023-04-02T02:08:08.566Z,9.24
2023-04-02T02:10:34.978Z,9.42
2023-04-02T02:13:01.355Z,9.55
2023-04-02T02:15:27.744Z,9.83
2023-04-02T02:17:54.356Z,9.82
2023-04-02T02:20:20.791Z,9.79
2023-04-02T02:22:47.193Z,9.51
2023-04-02T02:25:13.608Z,9.32
2023-04-02T02:27:40.072Z,9.30
2023-04-02T02:30:06.511Z,9.52
2023-04-02T02:32:33.100Z,9.82
2023-04-02T02:34:59.509Z,9.96
2023-04-02T02:37:25.890Z,9.94
2023-04-02T02:39:52.378Z,9.97
2023-04-02T02:42:18.792Z,9.96
2023-04-02T02:44:45.291Z,9.89
2023-04-02T02:47:11.868Z,9.55
2023-04-02T02:49:38.289Z,9.66
2023-04-02T02:52:04.656Z,9.70
2023-04-02T02:54:31.044Z,9.58
2023-04-02T02:56:57.427Z,9.49
2023-04-02T02:59:24.041Z,9.54
2023-04-02T03:01:50.598Z,9.32
2023-04-02T03:04:17.114Z,9.62
2023-04-02T03:06:43.565Z,9.78
2023-04-02T03:09:09.921Z,9.97
2023-04-02T03:11:36.320Z,9.96
2023-04-02T03:14:02.741Z,9.95
2023-04-02T03:16:29.308Z,9.92
2023-04-02T03:18:55.716Z,9.72
2023-04-02T03:21:22.191Z,9.89
2023-04-02T03:23:48.597Z,9.71
2023-04-02T03:26:14.982Z,9.54
2023-04-02T03:28:41.349Z,9.49
2023-04-02T03:31:07.810Z,9.61
2023-04-02T03:33:34.257Z,9.80
2023-04-02T03:36:00.737Z,9.28
2023-04-02T03:38:27.219Z,9.55
2023-04-02T03:40:53.565Z,9.56
2023-04-02T03:43:19.978Z,9.69
2023-04-02T03:45:46.338Z,9.92
2023-04-02T03:48:12.718Z,10.09
2023-04-02T03:50:39.101Z,10.11
2023-04-02T03:53:05.505Z,9.94
2023-04-02T03:55:31.936Z,9.93
2023-04-02T03:57:58.423Z,9.68
2023-04-02T04:00:24.805Z,9.60
2023-04-02T04:02:51.216Z,9.57
2023-04-02T04:05:17.652Z,9.61
2023-04-02T04:07:44.003Z,9.83
2023-04-02T04:10:10.421Z,10.06
2023-04-02T04:12:36.802Z,10.17
2023-04-02T04:15:03.233Z,9.68
2023-04-02T04:17:29.800Z,9.55
2023-04-02T04:19:56.248Z,9.36
2023-04-02T04:22:22.699Z,9.43
2023-04-02T04:24:49.112Z,9.17
2023-04-02T04:27:15.460Z,9.48
2023-04-02T04:29:41.986Z,9.52
2023-04-02T04:32:08.406Z,9.55
2023-04-02T04:34:34.810Z,9.46
2023-04-02T04:37:01.176Z,9.36
2023-04-02T04:39:27.594Z,9.23
2023-04-02T04:41:54.007Z,9.40
2023-04-02T04:44:20.400Z,9.38
2023-04-02T04:46:46.771Z,9.61
2023-04-02T04:49:13.179Z,9.49
2023-04-02T04:51:39.626Z,9.65
2023-04-02T04:54:05.976Z,9.84
2023-04-02T04:56:32.386Z,10.14
2023-04-02T04:58:58.774Z,9.82
2023-04-02T05:01:25.334Z,9.79
2023-04-02T05:03:53.249Z,9.92
2023-04-02T05:06:19.613Z,10.03
2023-04-02T05:08:46.012Z,10.21
2023-04-02T05:11:12.461Z,10.35
2023-04-02T05:13:38.876Z,10.41
2023-04-02T05:16:05.426Z,10.38
2023-04-02T05:18:31.860Z,10.15
2023-04-02T05:20:58.268Z,9.98
2023-04-02T05:23:24.637Z,9.84
2023-04-02T05:25:51.016Z,9.91
2023-04-02T05:28:17.418Z,9.69
2023-04-02T05:30:43.823Z,9.97
2023-04-02T05:33:10.324Z,9.78
2023-04-02T05:35:37.125Z,9.78
2023-04-02T05:38:03.766Z,9.71
2023-04-02T05:40:30.142Z,9.55
2023-04-02T05:42:56.523Z,9.56
2023-04-02T05:45:23.016Z,9.49
2023-04-02T05:47:49.403Z,9.57
2023-04-02T05:50:15.873Z,9.73
2023-04-02T05:52:45.412Z,9.45
2023-04-02T05:55:11.826Z,9.44
2023-04-02T05:57:43.190Z,9.57
2023-04-02T06:00:13.402Z,9.52
2023-04-02T06:02:39.917Z,9.75
2023-04-02T06:05:06.420Z,9.78
2023-04-02T06:07:32.799Z,9.78
2023-04-02T06:09:59.215Z,9.78
2023-04-02T06:12:25.613Z,9.93
2023-04-02T06:14:52.006Z,10.17
2023-04-02T06:17:18.376Z,10.43
2023-04-02T06:19:44.920Z,10.60
2023-04-02T06:22:11.348Z,10.40
2023-04-02T06:24:37.761Z,10.33
2023-04-02T06:27:04.155Z,10.10
2023-04-02T06:29:30.618Z,10.25
2023-04-02T06:31:57.111Z,10.35
2023-04-02T06:34:23.538Z,10.47
2023-04-02T06:36:49.893Z,10.61
2023-04-02T06:39:16.338Z,10.62
2023-04-02T06:41:42.729Z,10.76
2023-04-02T06:44:09.111Z,10.83
2023-04-02T06:46:35.584Z,10.87
2023-04-02T06:49:03.423Z,10.44
2023-04-02T06:51:29.796Z,10.48
2023-04-02T06:53:56.185Z,10.40
2023-04-02T06:56:22.590Z,10.67
2023-04-02T06:58:48.950Z,10.61
2023-04-02T07:01:15.385Z,10.50
2023-04-02T07:03:41.828Z,10.64
2023-04-02T07:06:08.365Z,10.57
2023-04-02T07:08:34.803Z,10.41
2023-04-02T07:11:01.221Z,10.55
2023-04-02T07:13:27.636Z,10.62
2023-04-02T07:15:54.151Z,10.74
2023-04-02T07:18:20.822Z,10.64
2023-04-02T07:20:47.233Z,10.71
2023-04-02T07:23:14.812Z,10.86
2023-04-02T07:25:42.187Z,11.08
2023-04-02T07:28:08.631Z,10.93
2023-04-02T07:30:35.022Z,11.14
2023-04-02T07:33:01.574Z,11.25
2023-04-02T07:35:28.076Z,11.52
2023-04-02T07:37:54.594Z,11.42
2023-04-02T07:40:21.041Z,11.72
2023-04-02T07:42:47.427Z,11.48
2023-04-02T07:45:13.869Z,11.67
2023-04-02T07:47:40.289Z,11.96
2023-04-02T07:50:06.698Z,11.87
2023-04-02T07:52:33.113Z,11.97
2023-04-02T07:54:59.530Z,11.69
2023-04-02T07:57:25.968Z,11.71
2023-04-02T07:59:52.553Z,11.91
2023-04-02T08:02:19.038Z,12.05
2023-04-02T08:04:45.489Z,11.83
2023-04-02T08:07:11.876Z,11.72
2023-04-02T08:09:38.261Z,11.72
2023-04-02T08:12:04.687Z,12.06
2023-04-02T08:14:31.080Z,12.50
2023-04-02T08:16:57.797Z,12.80
2023-04-02T08:19:24.380Z,12.61
2023-04-02T08:21:50.776Z,12.87
2023-04-02T08:24:17.274Z,12.64
2023-04-02T08:26:45.414Z,11.98
2023-04-02T08:29:11.992Z,11.78
2023-04-02T08:31:39.385Z,11.95
2023-04-02T08:34:05.803Z,11.85
2023-04-02T08:36:32.230Z,11.97
2023-04-02T08:38:58.656Z,12.03
2023-04-02T08:41:25.061Z,11.91
2023-04-02T08:43:51.424Z,12.22
2023-04-02T08:46:18.048Z,12.44
2023-04-02T08:48:44.488Z,12.43
2023-04-02T08:51:10.931Z,12.25
2023-04-02T08:53:37.328Z,12.40
2023-04-02T08:56:03.714Z,12.90
2023-04-02T08:58:30.130Z,13.57
2023-04-02T09:00:56.692Z,13.59
2023-04-02T09:03:23.416Z,13.55
2023-04-02T09:05:49.841Z,12.64
2023-04-02T09:08:16.230Z,12.42
2023-04-02T09:10:43.193Z,12.29
2023-04-02T09:13:09.611Z,12.90
2023-04-02T09:15:36.185Z,13.38
2023-04-02T09:18:03.023Z,13.13
2023-04-02T09:20:29.534Z,13.73
2023-04-02T09:22:55.983Z,13.25
2023-04-02T09:25:22.504Z,13.02
2023-04-02T09:27:48.894Z,12.76
2023-04-02T09:30:15.302Z,13.31
2023-04-02T09:32:41.962Z,13.39
2023-04-02T09:35:18.306Z,12.98
2023-04-02T09:37:45.162Z,12.72
2023-04-02T09:40:11.578Z,12.79
2023-04-02T09:42:38.024Z,13.17
2023-04-02T09:45:04.488Z,13.34
2023-04-02T09:47:30.906Z,13.96
2023-04-02T09:49:57.308Z,13.65
2023-04-02T09:52:23.804Z,14.07
2023-04-02T09:54:50.287Z,13.33
2023-04-02T09:57:16.783Z,12.94
2023-04-02T09:59:43.216Z,13.36
2023-04-02T10:02:09.648Z,13.29
2023-04-02T10:04:36.226Z,13.02
2023-04-02T10:07:02.799Z,12.96
2023-04-02T10:09:29.396Z,12.72
2023-04-02T10:11:55.916Z,12.65
2023-04-02T10:14:22.436Z,12.79
2023-04-02T10:16:48.889Z,13.08
2023-04-02T10:19:15.334Z,13.39
2023-04-02T10:21:41.778Z,13.39
2023-04-02T10:24:08.240Z,13.35
2023-04-02T10:26:34.761Z,13.02
2023-04-02T10:29:01.286Z,12.98
2023-04-02T10:31:27.730Z,12.91
2023-04-02T10:33:54.159Z,12.66
2023-04-02T10:36:20.641Z,12.70
2023-04-02T10:38:47.300Z,12.73
2023-04-02T10:41:13.931Z,12.86
2023-04-02T10:43:40.312Z,12.95
2023-04-02T10:46:06.866Z,13.09
2023-04-02T10:48:33.293Z,13.09
2023-04-02T10:50:59.739Z,13.25
2023-04-02T10:53:26.481Z,12.96
2023-04-02T10:55:53.040Z,12.87
2023-04-02T10:58:19.463Z,12.81
2023-04-02T11:00:45.856Z,12.71
2023-04-02T11:03:12.381Z,12.53
2023-04-02T11:05:39.061Z,12.46
2023-04-02T11:08:05.591Z,12.34
2023-04-02T11:10:32.031Z,12.35
2023-04-02T11:12:58.481Z,12.54
2023-04-02T11:15:24.977Z,12.46
2023-04-02T11:17:51.499Z,12.57
2023-04-02T11:20:17.995Z,12.36
2023-04-02T11:22:44.357Z,12.33
2023-04-02T11:25:10.784Z,12.11
2023-04-02T11:27:37.253Z,12.25
2023-04-02T11:30:03.951Z,12.53
2023-04-02T11:32:33.856Z,12.55
2023-04-02T11:35:06.481Z,12.64
2023-04-02T11:37:38.303Z,12.83
2023-04-02T11:40:04.730Z,13.03
2023-04-02T11:42:31.191Z,13.21
2023-04-02T11:44:57.597Z,13.25
2023-04-02T11:47:24.110Z,13.63
2023-04-02T11:49:50.694Z,13.58
2023-04-02T11:52:17.165Z,13.38
2023-04-02T11:54:43.615Z,13.17
2023-04-02T11:57:10.147Z,13.27
2023-04-02T11:59:36.739Z,13.22
2023-04-02T12:02:03.219Z,13.02
2023-04-02T12:04:29.637Z,12.95
2023-04-02T12:06:56.226Z,12.97
2023-04-02T12:09:22.942Z,13.12
2023-04-02T12:11:51.045Z,13.18
2023-04-02T12:14:18.417Z,13.36
2023-04-02T12:16:44.961Z,13.54
2023-04-02T12:19:11.370Z,13.31
2023-04-02T12:21:37.793Z,13.57
2023-04-02T12:24:04.209Z,13.23
2023-04-02T12:26:30.811Z,13.61
2023-04-02T12:28:57.225Z,13.72
2023-04-02T12:31:23.703Z,13.48
2023-04-02T12:33:50.123Z,13.51
2023-04-02T12:36:16.677Z,13.81
2023-04-02T12:38:43.238Z,14.07
2023-04-02T12:41:09.697Z,13.81
2023-04-02T12:43:36.076Z,13.77
2023-04-02T12:46:02.525Z,13.82
2023-04-02T12:48:28.975Z,13.91
2023-04-02T12:50:55.416Z,14.19
2023-04-02T12:53:21.847Z,14.19
2023-04-02T12:55:48.193Z,14.08
2023-04-02T12:58:14.622Z,14.15
2023-04-02T13:00:41.032Z,13.85
2023-04-02T13:03:07.455Z,13.96
2023-04-02T13:05:33.873Z,13.72
2023-04-02T13:08:00.433Z,13.54
2023-04-02T13:10:26.873Z,13.52
2023-04-02T13:12:53.664Z,13.61
2023-04-02T13:15:20.044Z,13.83
2023-04-02T13:17:46.462Z,13.85
2023-04-02T13:20:12.976Z,13.68
2023-04-02T13:22:39.395Z,13.88
2023-04-02T13:25:05.809Z,13.56
2023-04-02T13:27:32.211Z,13.92
2023-04-02T13:29:58.659Z,13.66
2023-04-02T13:32:25.094Z,13.86
2023-04-02T13:34:51.492Z,13.97
2023-04-02T13:37:18.029Z,13.79
2023-04-02T13:39:44.407Z,13.89
2023-04-02T13:42:10.805Z,13.93
2023-04-02T13:44:37.198Z,13.74
2023-04-02T13:47:03.632Z,14.05
2023-04-02T13:49:30.117Z,14.09
2023-04-02T13:51:56.522Z,13.55
2023-04-02T13:54:22.988Z,14.10
2023-04-02T13:56:49.420Z,14.24
2023-04-02T13:59:16.000Z,14.25
2023-04-02T14:01:42.393Z,14.15
2023-04-02T14:04:08.878Z,13.95
2023-04-02T14:06:35.375Z,14.13
2023-04-02T14:09:01.854Z,14.17
2023-04-02T14:11:28.353Z,14.21
2023-04-02T14:13:54.798Z,14.33
2023-04-02T14:16:21.349Z,14.39
2023-04-02T14:18:47.765Z,14.57
2023-04-02T14:21:14.196Z,14.36
2023-04-02T14:23:40.732Z,14.51
2023-04-02T14:26:07.153Z,14.61
2023-04-02T14:28:33.581Z,14.71
2023-04-02T14:31:00.207Z,14.64
2023-04-02T14:33:26.789Z,14.41
2023-04-02T14:35:53.228Z,14.55
2023-04-02T14:38:19.843Z,14.29
2023-04-02T14:40:46.573Z,14.37
2023-04-02T14:43:13.036Z,14.37
2023-04-02T14:45:39.441Z,14.38
2023-04-02T14:48:05.912Z,14.38
2023-04-02T14:50:32.348Z,14.36
2023-04-02T14:52:58.799Z,14.13
2023-04-02T14:55:25.180Z,14.19
2023-04-02T14:57:51.628Z,14.19
2023-04-02T15:00:18.304Z,14.25
2023-04-02T15:02:44.764Z,14.34
2023-04-02T15:05:11.245Z,14.35
2023-04-02T15:07:37.665Z,14.24
2023-04-02T15:10:04.108Z,14.24
2023-04-02T15:12:30.568Z,14.31
2023-04-02T15:14:56.990Z,14.12
2023-04-02T15:17:23.445Z,14.18
2023-04-02T15:19:49.885Z,13.98
2023-04-02T15:22:16.443Z,14.12
2023-04-02T15:24:43.039Z,14.06
2023-04-02T15:27:12.006Z,14.14
2023-04-02T15:29:44.689Z,13.98
2023-04-02T15:32:11.142Z,14.01
2023-04-02T15:34:37.573Z,14.06
2023-04-02T15:37:04.084Z,14.00
2023-04-02T15:39:30.543Z,14.02
2023-04-02T15:41:56.985Z,14.01
2023-04-02T15:44:23.385Z,13.98
2023-04-02T15:46:49.753Z,13.97
2023-04-02T15:49:16.234Z,13.92
2023-04-02T15:51:42.662Z,13.55
2023-04-02T15:54:09.063Z,13.65
2023-04-02T15:56:35.696Z,13.73
2023-04-02T15:59:02.126Z,13.73
2023-04-02T16:01:28.607Z,13.64
2023-04-02T16:03:55.180Z,13.66
2023-04-02T16:06:21.662Z,13.48
2023-04-02T16:08:48.088Z,13.43
2023-04-02T16:11:14.525Z,13.56
2023-04-02T16:13:41.189Z,13.62
2023-04-02T16:16:07.765Z,13.56
2023-04-02T16:18:34.258Z,13.47
2023-04-02T16:21:00.689Z,13.63
2023-04-02T16:23:27.047Z,13.70
2023-04-02T16:25:53.893Z,13.59
2023-04-02T16:28:20.289Z,13.74
2023-04-02T16:30:46.985Z,13.80
2023-04-02T16:33:13.733Z,13.76
2023-04-02T16:35:43.464Z,13.74
2023-04-02T16:38:10.258Z,13.56
2023-04-02T16:40:37.108Z,13.62
2023-04-02T16:43:03.884Z,13.64
2023-04-02T16:45:30.335Z,13.66
2023-04-02T16:47:56.943Z,13.58
2023-04-02T16:50:23.370Z,13.57
2023-04-02T16:52:49.757Z,13.64
2023-04-02T16:55:16.117Z,13.61
2023-04-02T16:57:42.491Z,13.61
2023-04-02T17:00:08.884Z,13.54
2023-04-02T17:02:35.377Z,13.50
2023-04-02T17:05:01.894Z,13.40
2023-04-02T17:07:28.296Z,13.47
2023-04-02T17:09:54.805Z,13.45
2023-04-02T17:12:21.263Z,13.47
2023-04-02T17:14:47.694Z,13.52
2023-04-02T17:17:14.105Z,13.45
2023-04-02T17:19:40.573Z,13.35
2023-04-02T17:22:07.306Z,13.35
2023-04-02T17:24:33.844Z,13.35
2023-04-02T17:27:00.277Z,13.36
2023-04-02T17:29:26.885Z,13.43
2023-04-02T17:31:53.478Z,13.39
2023-04-02T17:34:20.053Z,13.32
2023-04-02T17:36:46.493Z,13.31
2023-04-02T17:39:12.898Z,13.34
2023-04-02T17:41:39.307Z,13.23
2023-04-02T17:44:05.687Z,13.31
2023-04-02T17:46:32.097Z,13.24
2023-04-02T17:48:58.555Z,13.19
2023-04-02T17:51:25.849Z,13.24
2023-04-02T17:53:54.454Z,13.33
2023-04-02T17:56:20.936Z,13.32
2023-04-02T17:58:47.516Z,13.41
2023-04-02T18:01:14.167Z,13.34
2023-04-02T18:03:40.805Z,13.31
2023-04-02T18:06:07.495Z,13.38
2023-04-02T18:08:34.119Z,13.36
2023-04-02T18:11:00.602Z,13.39
2023-04-02T18:13:27.153Z,13.47
2023-04-02T18:15:53.592Z,13.31
2023-04-02T18:18:20.017Z,13.12
2023-04-02T18:20:49.516Z,13.31
2023-04-02T18:23:15.899Z,13.36
2023-04-02T18:25:42.331Z,13.19
2023-04-02T18:28:08.724Z,13.11
2023-04-02T18:30:35.362Z,12.91
2023-04-02T18:33:02.070Z,12.90
2023-04-02T18:35:30.588Z,12.95
2023-04-02T18:37:57.223Z,12.85
2023-04-02T18:40:23.712Z,12.98
2023-04-02T18:42:50.111Z,12.77
2023-04-02T18:45:16.612Z,12.94
2023-04-02T18:47:43.301Z,12.89
2023-04-02T18:50:09.833Z,12.96
2023-04-02T18:52:36.304Z,12.87
2023-04-02T18:55:02.697Z,12.84
2023-04-02T18:57:32.154Z,12.92
2023-04-02T18:59:58.589Z,12.94
2023-04-02T19:02:25.230Z,12.82
2023-04-02T19:04:51.688Z,12.83
2023-04-02T19:07:18.382Z,12.76
2023-04-02T19:09:44.769Z,12.66
2023-04-02T19:12:11.154Z,12.66
2023-04-02T19:14:37.621Z,12.72
2023-04-02T19:17:04.110Z,12.67
2023-04-02T19:19:33.402Z,12.70
2023-04-02T19:21:59.938Z,12.52
2023-04-02T19:24:26.470Z,12.65
2023-04-02T19:26:55.193Z,12.58
2023-04-02T19:29:21.855Z,12.69
2023-04-02T19:31:48.409Z,12.71
2023-04-02T19:34:21.955Z,12.74
2023-04-02T19:36:48.702Z,12.79
2023-04-02T19:39:15.217Z,12.65
2023-04-02T19:41:46.121Z,12.72
2023-04-02T19:44:13.194Z,12.64
2023-04-02T19:46:48.134Z,12.72
2023-04-02T19:49:16.791Z,12.72
2023-04-02T19:51:45.756Z,12.74
2023-04-02T19:54:12.214Z,12.63
2023-04-02T19:56:39.014Z,12.41
2023-04-02T19:59:17.317Z,12.58
2023-04-02T20:01:44.720Z,12.66
2023-04-02T20:04:11.260Z,12.50
2023-04-02T20:06:39.252Z,12.28
2023-04-02T20:09:05.685Z,12.39
2023-04-02T20:11:36.612Z,12.53
2023-04-02T20:14:03.136Z,12.41
2023-04-02T20:16:29.675Z,11.98
2023-04-02T20:18:56.302Z,11.95
2023-04-02T20:21:25.175Z,12.11
2023-04-02T20:23:51.810Z,12.08
2023-04-02T20:26:18.606Z,12.12
2023-04-02T20:28:48.886Z,12.29
2023-04-02T20:31:15.342Z,12.54
2023-04-02T20:33:41.976Z,12.61
2023-04-02T20:38:48.723Z,12.63
2023-04-02T20:41:15.159Z,12.67
2023-04-02T20:43:41.636Z,12.64
2023-04-02T20:46:09.508Z,12.67
2023-04-02T20:48:39.752Z,12.56
2023-04-02T20:51:06.276Z,12.47
2023-04-02T20:53:32.746Z,12.55
2023-04-02T20:55:59.114Z,12.59
2023-04-02T20:58:25.492Z,12.53
2023-04-02T21:00:52.111Z,12.55
2023-04-02T21:03:18.578Z,12.42
2023-04-02T21:05:45.115Z,12.47
2023-04-02T21:08:11.488Z,12.53
2023-04-02T21:10:40.941Z,12.50
2023-04-02T21:13:07.512Z,12.54
2023-04-02T21:15:34.181Z,12.48
2023-04-02T21:18:01.207Z,12.35
2023-04-02T21:20:27.708Z,12.52
2023-04-02T21:22:54.104Z,12.57
2023-04-02T21:25:20.834Z,12.48
2023-04-02T21:27:47.425Z,12.53
2023-04-02T21:30:13.829Z,12.52
2023-04-02T21:32:40.269Z,12.39
2023-04-02T21:35:06.797Z,12.24
2023-04-02T21:37:33.337Z,12.34
2023-04-02T21:39:59.762Z,12.09
2023-04-02T21:42:26.174Z,12.15
2023-04-02T21:44:52.809Z,12.22
2023-04-02T21:47:19.437Z,12.20
2023-04-02T21:49:45.890Z,12.24
2023-04-02T21:52:12.310Z,12.10
2023-04-02T21:54:38.791Z,12.17
2023-04-02T21:57:05.345Z,12.13
2023-04-02T21:59:32.085Z,12.05
2023-04-02T22:01:58.591Z,12.09
2023-04-02T22:04:25.658Z,12.05
2023-04-02T22:06:52.301Z,12.06
2023-04-02T22:09:21.949Z,12.01
2023-04-02T22:11:48.468Z,12.02
2023-04-02T22:14:14.880Z,12.12
2023-04-02T22:16:41.547Z,12.04
2023-04-02T22:19:08.118Z,12.13
2023-04-02T22:21:34.544Z,12.07
2023-04-02T22:24:01.016Z,12.02
2023-04-02T22:26:27.414Z,12.06
2023-04-02T22:28:53.908Z,12.09
2023-04-02T22:31:25.143Z,12.11
2023-04-02T22:33:54.025Z,12.03
2023-04-02T22:36:20.436Z,12.00
2023-04-02T22:38:46.984Z,11.81
2023-04-02T22:41:13.583Z,11.85
2023-04-02T22:43:40.143Z,11.87
2023-04-02T22:46:06.659Z,11.83
2023-04-02T22:48:33.454Z,11.88
2023-04-02T22:50:59.852Z,11.84
2023-04-02T22:53:26.249Z,11.88
2023-04-02T22:55:52.646Z,11.79
2023-04-02T22:58:19.167Z,11.91
2023-04-02T23:00:45.586Z,11.83
2023-04-02T23:03:12.047Z,11.89
2023-04-02T23:05:38.429Z,11.93
2023-04-02T23:08:04.887Z,11.96
2023-04-02T23:10:31.414Z,12.13
2023-04-02T23:12:57.906Z,12.04
2023-04-02T23:15:24.332Z,11.99
2023-04-02T23:17:50.774Z,11.99
2023-04-02T23:20:17.304Z,11.98
2023-04-02T23:22:43.785Z,11.89
2023-04-02T23:25:10.195Z,11.82
2023-04-02T23:27:36.598Z,11.53
2023-04-02T23:30:03.237Z,11.68
2023-04-02T23:32:31.972Z,11.91
2023-04-02T23:34:58.350Z,11.98
2023-04-02T23:37:24.769Z,12.04
2023-04-02T23:39:51.319Z,12.04
2023-04-02T23:42:17.857Z,12.02
2023-04-02T23:44:44.335Z,11.97
2023-04-02T23:47:10.792Z,11.93
2023-04-02T23:49:40.341Z,11.95
2023-04-02T23:52:06.977Z,11.80
2023-04-02T23:54:33.453Z,11.86
2023-04-02T23:57:00.110Z,11.83
2023-04-02T23:59:26.795Z,11.90
